sensor_id;sensor_type;location;lat;lon;timestamp;temperature;humidity
17639;DHT22;8938;53.546;9.954;2023-06-24T00:00:03;20.40;99.90
17639;DHT22;8938;53.546;9.954;2023-06-24T00:02:33;20.40;99.90
17639;DHT22;8938;53.546;9.954;2023-06-24T00:05:02;20.30;99.90
17639;DHT22;8938;53.546;9.954;2023-06-24T00:07:29;20.30;99.90
17639;DHT22;8938;53.546;9.954;2023-06-24T00:09:54;20.40;99.90
17639;DHT22;8938;53.546;9.954;2023-06-24T00:12:20;20.40;99.90
17639;DHT22;8938;53.546;9.954;2023-06-24T00:14:46;20.50;99.90
17639;DHT22;8938;53.546;9.954;2023-06-24T00:17:13;20.50;99.90
17639;DHT22;8938;53.546;9.954;2023-06-24T00:19:38;20.60;99.90
17639;DHT22;8938;53.546;9.954;2023-06-24T00:22:04;20.60;99.90
17639;DHT22;8938;53.546;9.954;2023-06-24T00:24:31;20.60;99.90
17639;DHT22;8938;53.546;9.954;2023-06-24T00:26:57;20.70;99.90
17639;DHT22;8938;53.546;9.954;2023-06-24T00:29:22;20.60;99.90
17639;DHT22;8938;53.546;9.954;2023-06-24T00:31:48;20.60;99.90
17639;DHT22;8938;53.546;9.954;2023-06-24T00:34:13;20.60;99.90
17639;DHT22;8938;53.546;9.954;2023-06-24T00:36:39;20.50;99.90
17639;DHT22;8938;53.546;9.954;2023-06-24T00:39:05;20.40;99.90
17639;DHT22;8938;53.546;9.954;2023-06-24T00:41:33;20.30;99.90
17639;DHT22;8938;53.546;9.954;2023-06-24T00:43:59;20.30;99.90
17639;DHT22;8938;53.546;9.954;2023-06-24T00:46:25;20.30;99.90
17639;DHT22;8938;53.546;9.954;2023-06-24T00:48:57;20.20;99.90
17639;DHT22;8938;53.546;9.954;2023-06-24T00:51:23;20.20;99.90
17639;DHT22;8938;53.546;9.954;2023-06-24T00:53:54;20.20;99.90
17639;DHT22;8938;53.546;9.954;2023-06-24T00:56:22;20.20;99.90
17639;DHT22;8938;53.546;9.954;2023-06-24T00:58:51;20.20;99.90
17639;DHT22;8938;53.546;9.954;2023-06-24T01:01:21;20.20;99.90
17639;DHT22;8938;53.546;9.954;2023-06-24T01:03:47;20.20;99.90
17639;DHT22;8938;53.546;9.954;2023-06-24T01:06:13;20.20;99.90
17639;DHT22;8938;53.546;9.954;2023-06-24T01:08:39;20.20;99.90
17639;DHT22;8938;53.546;9.954;2023-06-24T01:11:04;20.20;99.90
17639;DHT22;8938;53.546;9.954;2023-06-24T01:13:30;20.20;99.90
17639;DHT22;8938;53.546;9.954;2023-06-24T01:15:59;20.20;99.90
17639;DHT22;8938;53.546;9.954;2023-06-24T01:18:32;20.10;99.90
17639;DHT22;8938;53.546;9.954;2023-06-24T01:21:09;20.20;99.90
17639;DHT22;8938;53.546;9.954;2023-06-24T01:32:16;20.30;99.90
17639;DHT22;8938;53.546;9.954;2023-06-24T01:34:51;20.40;99.90
17639;DHT22;8938;53.546;9.954;2023-06-24T01:37:25;20.40;99.90
17639;DHT22;8938;53.546;9.954;2023-06-24T01:40:11;20.40;99.90
17639;DHT22;8938;53.546;9.954;2023-06-24T01:42:39;20.40;99.90
17639;DHT22;8938;53.546;9.954;2023-06-24T01:45:07;20.30;99.90
17639;DHT22;8938;53.546;9.954;2023-06-24T01:47:35;20.30;99.90
17639;DHT22;8938;53.546;9.954;2023-06-24T01:50:02;20.20;99.90
17639;DHT22;8938;53.546;9.954;2023-06-24T01:52:29;20.20;99.90
17639;DHT22;8938;53.546;9.954;2023-06-24T01:55:01;20.10;99.90
17639;DHT22;8938;53.546;9.954;2023-06-24T01:57:30;20.10;99.90
17639;DHT22;8938;53.546;9.954;2023-06-24T01:59:59;20.10;99.90
17639;DHT22;8938;53.546;9.954;2023-06-24T02:02:26;20.20;99.90
17639;DHT22;8938;53.546;9.954;2023-06-24T02:04:54;20.10;99.90
17639;DHT22;8938;53.546;9.954;2023-06-24T02:07:20;20.00;99.90
17639;DHT22;8938;53.546;9.954;2023-06-24T02:09:47;20.00;99.90
17639;DHT22;8938;53.546;9.954;2023-06-24T02:12:13;20.00;99.90
17639;DHT22;8938;53.546;9.954;2023-06-24T02:14:40;20.00;99.90
17639;DHT22;8938;53.546;9.954;2023-06-24T02:17:08;20.00;99.90
17639;DHT22;8938;53.546;9.954;2023-06-24T02:19:36;20.00;99.90
17639;DHT22;8938;53.546;9.954;2023-06-24T02:22:02;20.00;99.90
17639;DHT22;8938;53.546;9.954;2023-06-24T02:24:30;20.00;99.90
17639;DHT22;8938;53.546;9.954;2023-06-24T02:26:59;20.00;99.90
17639;DHT22;8938;53.546;9.954;2023-06-24T02:29:26;20.00;99.90
17639;DHT22;8938;53.546;9.954;2023-06-24T02:31:53;20.00;99.90
17639;DHT22;8938;53.546;9.954;2023-06-24T02:34:19;20.00;99.90
17639;DHT22;8938;53.546;9.954;2023-06-24T02:36:44;20.00;99.90
17639;DHT22;8938;53.546;9.954;2023-06-24T02:39:10;19.90;99.90
17639;DHT22;8938;53.546;9.954;2023-06-24T02:41:35;19.90;99.90
17639;DHT22;8938;53.546;9.954;2023-06-24T02:44:02;20.00;99.90
17639;DHT22;8938;53.546;9.954;2023-06-24T02:46:27;19.80;99.90
17639;DHT22;8938;53.546;9.954;2023-06-24T02:48:56;19.90;99.90
17639;DHT22;8938;53.546;9.954;2023-06-24T02:51:23;19.90;99.90
17639;DHT22;8938;53.546;9.954;2023-06-24T02:53:49;19.90;99.90
17639;DHT22;8938;53.546;9.954;2023-06-24T02:56:15;19.90;99.90
17639;DHT22;8938;53.546;9.954;2023-06-24T02:58:46;19.90;99.90
17639;DHT22;8938;53.546;9.954;2023-06-24T03:01:12;19.90;99.90
17639;DHT22;8938;53.546;9.954;2023-06-24T03:03:38;19.90;99.90
17639;DHT22;8938;53.546;9.954;2023-06-24T03:06:05;20.00;99.90
17639;DHT22;8938;53.546;9.954;2023-06-24T03:08:31;20.00;99.90
17639;DHT22;8938;53.546;9.954;2023-06-24T03:10:57;19.90;99.90
17639;DHT22;8938;53.546;9.954;2023-06-24T03:13:23;20.00;99.90
17639;DHT22;8938;53.546;9.954;2023-06-24T03:15:49;20.00;99.90
17639;DHT22;8938;53.546;9.954;2023-06-24T03:18:16;19.90;99.90
17639;DHT22;8938;53.546;9.954;2023-06-24T03:20:42;19.90;99.90
17639;DHT22;8938;53.546;9.954;2023-06-24T03:23:08;19.80;99.90
17639;DHT22;8938;53.546;9.954;2023-06-24T03:25:34;19.80;99.90
17639;DHT22;8938;53.546;9.954;2023-06-24T03:28:00;19.80;99.90
17639;DHT22;8938;53.546;9.954;2023-06-24T03:30:29;19.80;99.90
17639;DHT22;8938;53.546;9.954;2023-06-24T03:32:55;19.80;99.90
17639;DHT22;8938;53.546;9.954;2023-06-24T03:35:21;19.80;99.90
17639;DHT22;8938;53.546;9.954;2023-06-24T03:37:48;19.80;99.90
17639;DHT22;8938;53.546;9.954;2023-06-24T03:40:13;19.80;99.90
17639;DHT22;8938;53.546;9.954;2023-06-24T03:42:39;19.80;99.90
17639;DHT22;8938;53.546;9.954;2023-06-24T03:45:05;19.90;99.90
17639;DHT22;8938;53.546;9.954;2023-06-24T03:47:30;19.90;99.90
17639;DHT22;8938;53.546;9.954;2023-06-24T03:49:56;20.00;99.90
17639;DHT22;8938;53.546;9.954;2023-06-24T03:52:21;20.00;99.90
17639;DHT22;8938;53.546;9.954;2023-06-24T03:54:47;20.10;99.90
17639;DHT22;8938;53.546;9.954;2023-06-24T03:57:12;20.10;99.90
17639;DHT22;8938;53.546;9.954;2023-06-24T03:59:38;20.10;99.90
17639;DHT22;8938;53.546;9.954;2023-06-24T04:02:05;20.10;99.90
17639;DHT22;8938;53.546;9.954;2023-06-24T04:04:34;20.10;99.90
17639;DHT22;8938;53.546;9.954;2023-06-24T04:07:00;20.20;99.90
17639;DHT22;8938;53.546;9.954;2023-06-24T04:09:25;20.20;99.90
17639;DHT22;8938;53.546;9.954;2023-06-24T04:11:51;20.20;99.90
17639;DHT22;8938;53.546;9.954;2023-06-24T04:14:17;20.30;99.90
17639;DHT22;8938;53.546;9.954;2023-06-24T04:16:42;20.20;99.90
17639;DHT22;8938;53.546;9.954;2023-06-24T04:19:08;20.30;99.90
17639;DHT22;8938;53.546;9.954;2023-06-24T04:21:33;20.20;99.90
17639;DHT22;8938;53.546;9.954;2023-06-24T04:23:59;20.30;99.90
17639;DHT22;8938;53.546;9.954;2023-06-24T04:26:24;20.30;99.90
17639;DHT22;8938;53.546;9.954;2023-06-24T04:28:50;20.40;99.90
17639;DHT22;8938;53.546;9.954;2023-06-24T04:31:15;20.30;99.90
17639;DHT22;8938;53.546;9.954;2023-06-24T04:33:41;20.40;99.90
17639;DHT22;8938;53.546;9.954;2023-06-24T04:36:06;20.40;99.90
17639;DHT22;8938;53.546;9.954;2023-06-24T04:38:32;20.50;99.90
17639;DHT22;8938;53.546;9.954;2023-06-24T04:40:58;20.50;99.90
17639;DHT22;8938;53.546;9.954;2023-06-24T04:43:25;20.60;99.90
17639;DHT22;8938;53.546;9.954;2023-06-24T04:45:51;20.50;99.90
17639;DHT22;8938;53.546;9.954;2023-06-24T04:48:16;20.60;99.90
17639;DHT22;8938;53.546;9.954;2023-06-24T04:50:42;20.60;99.90
17639;DHT22;8938;53.546;9.954;2023-06-24T04:53:07;20.80;99.90
17639;DHT22;8938;53.546;9.954;2023-06-24T04:55:33;21.20;99.90
17639;DHT22;8938;53.546;9.954;2023-06-24T04:58:00;22.00;99.90
17639;DHT22;8938;53.546;9.954;2023-06-24T05:00:26;22.90;99.90
17639;DHT22;8938;53.546;9.954;2023-06-24T05:02:51;23.70;99.90
17639;DHT22;8938;53.546;9.954;2023-06-24T05:05:19;24.50;99.90
17639;DHT22;8938;53.546;9.954;2023-06-24T05:07:45;25.10;99.90
17639;DHT22;8938;53.546;9.954;2023-06-24T05:10:11;25.70;99.90
17639;DHT22;8938;53.546;9.954;2023-06-24T05:12:36;26.20;99.90
17639;DHT22;8938;53.546;9.954;2023-06-24T05:15:02;26.40;99.90
17639;DHT22;8938;53.546;9.954;2023-06-24T05:17:28;26.90;99.90
17639;DHT22;8938;53.546;9.954;2023-06-24T05:19:53;27.00;99.90
17639;DHT22;8938;53.546;9.954;2023-06-24T05:22:19;27.20;99.90
17639;DHT22;8938;53.546;9.954;2023-06-24T05:24:44;26.90;99.90
17639;DHT22;8938;53.546;9.954;2023-06-24T05:27:10;26.20;99.90
17639;DHT22;8938;53.546;9.954;2023-06-24T05:29:35;25.50;99.90
17639;DHT22;8938;53.546;9.954;2023-06-24T05:32:01;24.80;99.90
17639;DHT22;8938;53.546;9.954;2023-06-24T05:34:29;24.30;99.90
17639;DHT22;8938;53.546;9.954;2023-06-24T05:36:55;23.80;99.90
17639;DHT22;8938;53.546;9.954;2023-06-24T05:39:21;23.60;99.90
17639;DHT22;8938;53.546;9.954;2023-06-24T05:41:46;23.30;99.90
17639;DHT22;8938;53.546;9.954;2023-06-24T05:44:14;23.00;99.90
17639;DHT22;8938;53.546;9.954;2023-06-24T05:46:39;23.10;99.90
17639;DHT22;8938;53.546;9.954;2023-06-24T05:49:05;22.90;99.90
17639;DHT22;8938;53.546;9.954;2023-06-24T05:51:31;22.70;99.90
17639;DHT22;8938;53.546;9.954;2023-06-24T05:53:56;22.50;99.90
17639;DHT22;8938;53.546;9.954;2023-06-24T05:56:22;22.30;99.90
17639;DHT22;8938;53.546;9.954;2023-06-24T05:58:48;22.20;99.90
17639;DHT22;8938;53.546;9.954;2023-06-24T06:01:14;22.00;99.90
17639;DHT22;8938;53.546;9.954;2023-06-24T06:03:40;21.80;99.90
17639;DHT22;8938;53.546;9.954;2023-06-24T06:06:06;21.70;99.90
17639;DHT22;8938;53.546;9.954;2023-06-24T06:08:32;21.70;99.90
17639;DHT22;8938;53.546;9.954;2023-06-24T06:10:58;21.80;99.90
17639;DHT22;8938;53.546;9.954;2023-06-24T06:13:24;21.80;99.90
17639;DHT22;8938;53.546;9.954;2023-06-24T06:15:49;21.90;99.90
17639;DHT22;8938;53.546;9.954;2023-06-24T06:18:15;22.00;99.90
17639;DHT22;8938;53.546;9.954;2023-06-24T06:20:41;22.00;99.90
17639;DHT22;8938;53.546;9.954;2023-06-24T06:23:07;22.10;99.90
17639;DHT22;8938;53.546;9.954;2023-06-24T06:25:33;22.00;99.90
17639;DHT22;8938;53.546;9.954;2023-06-24T06:27:58;22.00;99.90
17639;DHT22;8938;53.546;9.954;2023-06-24T06:30:24;22.00;99.90
17639;DHT22;8938;53.546;9.954;2023-06-24T06:32:49;22.10;99.90
17639;DHT22;8938;53.546;9.954;2023-06-24T06:35:15;22.20;99.90
17639;DHT22;8938;53.546;9.954;2023-06-24T06:37:40;22.40;99.90
17639;DHT22;8938;53.546;9.954;2023-06-24T06:40:06;22.50;99.90
17639;DHT22;8938;53.546;9.954;2023-06-24T06:42:32;22.60;99.90
17639;DHT22;8938;53.546;9.954;2023-06-24T06:44:58;22.60;99.90
17639;DHT22;8938;53.546;9.954;2023-06-24T06:47:24;22.60;99.90
17639;DHT22;8938;53.546;9.954;2023-06-24T06:49:50;22.70;99.90
17639;DHT22;8938;53.546;9.954;2023-06-24T06:52:15;22.80;99.90
17639;DHT22;8938;53.546;9.954;2023-06-24T06:54:41;22.80;99.90
17639;DHT22;8938;53.546;9.954;2023-06-24T06:57:07;22.80;99.90
17639;DHT22;8938;53.546;9.954;2023-06-24T06:59:32;22.80;99.90
17639;DHT22;8938;53.546;9.954;2023-06-24T07:01:58;22.70;99.90
17639;DHT22;8938;53.546;9.954;2023-06-24T07:04:24;22.80;99.90
17639;DHT22;8938;53.546;9.954;2023-06-24T07:06:50;22.80;99.90
17639;DHT22;8938;53.546;9.954;2023-06-24T07:09:16;22.70;99.90
17639;DHT22;8938;53.546;9.954;2023-06-24T07:11:42;22.80;99.90
17639;DHT22;8938;53.546;9.954;2023-06-24T07:14:08;22.90;99.90
17639;DHT22;8938;53.546;9.954;2023-06-24T07:16:34;23.00;99.90
17639;DHT22;8938;53.546;9.954;2023-06-24T07:18:59;23.00;99.90
17639;DHT22;8938;53.546;9.954;2023-06-24T07:21:26;23.20;99.90
17639;DHT22;8938;53.546;9.954;2023-06-24T07:23:51;23.10;99.90
17639;DHT22;8938;53.546;9.954;2023-06-24T07:26:24;23.10;99.90
17639;DHT22;8938;53.546;9.954;2023-06-24T07:28:50;23.00;99.90
17639;DHT22;8938;53.546;9.954;2023-06-24T07:31:15;23.00;99.90
17639;DHT22;8938;53.546;9.954;2023-06-24T07:33:41;23.10;99.90
17639;DHT22;8938;53.546;9.954;2023-06-24T07:36:06;23.10;99.90
17639;DHT22;8938;53.546;9.954;2023-06-24T07:38:32;23.10;99.90
17639;DHT22;8938;53.546;9.954;2023-06-24T07:40:57;23.20;99.90
17639;DHT22;8938;53.546;9.954;2023-06-24T07:43:23;23.30;99.90
17639;DHT22;8938;53.546;9.954;2023-06-24T07:45:49;23.40;99.90
17639;DHT22;8938;53.546;9.954;2023-06-24T07:48:14;23.50;99.90
17639;DHT22;8938;53.546;9.954;2023-06-24T07:50:42;23.70;99.90
17639;DHT22;8938;53.546;9.954;2023-06-24T07:53:07;23.90;99.90
17639;DHT22;8938;53.546;9.954;2023-06-24T07:55:32;24.10;99.90
17639;DHT22;8938;53.546;9.954;2023-06-24T07:57:58;24.40;99.90
17639;DHT22;8938;53.546;9.954;2023-06-24T08:00:24;24.70;99.90
17639;DHT22;8938;53.546;9.954;2023-06-24T08:02:51;24.80;99.90
17639;DHT22;8938;53.546;9.954;2023-06-24T08:05:16;24.80;99.90
17639;DHT22;8938;53.546;9.954;2023-06-24T08:07:43;24.80;99.90
17639;DHT22;8938;53.546;9.954;2023-06-24T08:10:09;24.90;99.90
17639;DHT22;8938;53.546;9.954;2023-06-24T08:12:35;24.90;99.90
17639;DHT22;8938;53.546;9.954;2023-06-24T08:15:06;24.90;99.90
17639;DHT22;8938;53.546;9.954;2023-06-24T08:17:31;24.90;99.90
17639;DHT22;8938;53.546;9.954;2023-06-24T08:19:57;24.90;99.90
17639;DHT22;8938;53.546;9.954;2023-06-24T08:22:22;24.70;99.90
17639;DHT22;8938;53.546;9.954;2023-06-24T08:24:48;24.70;99.90
17639;DHT22;8938;53.546;9.954;2023-06-24T08:27:13;24.70;99.90
17639;DHT22;8938;53.546;9.954;2023-06-24T08:29:39;24.50;99.90
17639;DHT22;8938;53.546;9.954;2023-06-24T08:32:07;24.40;99.90
17639;DHT22;8938;53.546;9.954;2023-06-24T08:34:33;24.30;99.90
17639;DHT22;8938;53.546;9.954;2023-06-24T08:36:58;24.30;99.90
17639;DHT22;8938;53.546;9.954;2023-06-24T08:39:24;24.30;99.90
17639;DHT22;8938;53.546;9.954;2023-06-24T08:41:50;24.40;99.90
17639;DHT22;8938;53.546;9.954;2023-06-24T08:44:15;24.40;99.90
17639;DHT22;8938;53.546;9.954;2023-06-24T08:46:41;24.70;99.90
17639;DHT22;8938;53.546;9.954;2023-06-24T08:51:53;24.70;99.90
17639;DHT22;8938;53.546;9.954;2023-06-24T08:54:19;24.70;99.90
17639;DHT22;8938;53.546;9.954;2023-06-24T08:56:45;24.70;99.90
17639;DHT22;8938;53.546;9.954;2023-06-24T08:59:12;24.80;99.90
17639;DHT22;8938;53.546;9.954;2023-06-24T09:01:40;24.80;99.90
17639;DHT22;8938;53.546;9.954;2023-06-24T09:04:05;24.80;99.90
17639;DHT22;8938;53.546;9.954;2023-06-24T09:06:33;24.80;99.90
17639;DHT22;8938;53.546;9.954;2023-06-24T09:08:59;25.00;99.90
17639;DHT22;8938;53.546;9.954;2023-06-24T09:11:26;25.10;99.90
17639;DHT22;8938;53.546;9.954;2023-06-24T09:14:00;25.20;99.90
17639;DHT22;8938;53.546;9.954;2023-06-24T09:16:26;26.20;99.90
17639;DHT22;8938;53.546;9.954;2023-06-24T09:18:53;28.00;99.90
17639;DHT22;8938;53.546;9.954;2023-06-24T09:21:26;29.80;99.10
17639;DHT22;8938;53.546;9.954;2023-06-24T09:23:55;31.50;96.20
17639;DHT22;8938;53.546;9.954;2023-06-24T09:26:25;32.40;94.00
17639;DHT22;8938;53.546;9.954;2023-06-24T09:28:51;33.30;92.80
17639;DHT22;8938;53.546;9.954;2023-06-24T09:31:17;34.10;91.60
17639;DHT22;8938;53.546;9.954;2023-06-24T09:33:43;34.70;90.70
17639;DHT22;8938;53.546;9.954;2023-06-24T09:36:13;35.00;88.20
17639;DHT22;8938;53.546;9.954;2023-06-24T09:38:41;35.20;87.00
17639;DHT22;8938;53.546;9.954;2023-06-24T09:41:08;35.10;85.00
17639;DHT22;8938;53.546;9.954;2023-06-24T09:43:35;35.10;83.30
17639;DHT22;8938;53.546;9.954;2023-06-24T09:46:02;35.10;82.60
17639;DHT22;8938;53.546;9.954;2023-06-24T09:48:28;35.10;82.40
17639;DHT22;8938;53.546;9.954;2023-06-24T09:51:00;35.30;80.70
17639;DHT22;8938;53.546;9.954;2023-06-24T09:53:30;35.20;79.10
17639;DHT22;8938;53.546;9.954;2023-06-24T09:55:57;35.10;80.10
17639;DHT22;8938;53.546;9.954;2023-06-24T09:58:24;35.40;79.90
17639;DHT22;8938;53.546;9.954;2023-06-24T10:00:50;35.90;79.70
17639;DHT22;8938;53.546;9.954;2023-06-24T10:03:17;36.30;78.60
17639;DHT22;8938;53.546;9.954;2023-06-24T10:05:43;36.20;77.50
17639;DHT22;8938;53.546;9.954;2023-06-24T10:08:10;36.30;76.30
17639;DHT22;8938;53.546;9.954;2023-06-24T10:10:36;35.90;76.60
17639;DHT22;8938;53.546;9.954;2023-06-24T10:13:02;35.80;76.40
17639;DHT22;8938;53.546;9.954;2023-06-24T10:15:27;35.70;76.00
17639;DHT22;8938;53.546;9.954;2023-06-24T10:17:53;35.50;74.60
17639;DHT22;8938;53.546;9.954;2023-06-24T10:20:25;34.80;74.10
17639;DHT22;8938;53.546;9.954;2023-06-24T10:23:07;34.30;75.20
17639;DHT22;8938;53.546;9.954;2023-06-24T10:25:36;33.80;76.40
17639;DHT22;8938;53.546;9.954;2023-06-24T10:28:02;33.80;77.10
17639;DHT22;8938;53.546;9.954;2023-06-24T10:30:29;34.10;77.70
17639;DHT22;8938;53.546;9.954;2023-06-24T10:32:54;34.00;76.60
17639;DHT22;8938;53.546;9.954;2023-06-24T10:35:25;33.70;77.20
17639;DHT22;8938;53.546;9.954;2023-06-24T10:37:58;33.30;77.50
17639;DHT22;8938;53.546;9.954;2023-06-24T10:40:37;33.30;78.00
17639;DHT22;8938;53.546;9.954;2023-06-24T10:45:53;32.60;78.20
17639;DHT22;8938;53.546;9.954;2023-06-24T10:48:18;32.20;79.50
17639;DHT22;8938;53.546;9.954;2023-06-24T10:50:45;32.10;79.60
17639;DHT22;8938;53.546;9.954;2023-06-24T10:53:12;31.80;80.40
17639;DHT22;8938;53.546;9.954;2023-06-24T10:55:49;31.40;80.80
17639;DHT22;8938;53.546;9.954;2023-06-24T10:58:15;30.90;82.20
17639;DHT22;8938;53.546;9.954;2023-06-24T11:00:42;30.60;83.10
17639;DHT22;8938;53.546;9.954;2023-06-24T11:03:12;30.10;84.50
17639;DHT22;8938;53.546;9.954;2023-06-24T11:05:39;29.70;85.60
17639;DHT22;8938;53.546;9.954;2023-06-24T11:08:06;29.50;85.70
17639;DHT22;8938;53.546;9.954;2023-06-24T11:10:31;29.20;86.60
17639;DHT22;8938;53.546;9.954;2023-06-24T11:12:57;29.00;87.00
17639;DHT22;8938;53.546;9.954;2023-06-24T11:15:24;28.80;87.70
17639;DHT22;8938;53.546;9.954;2023-06-24T11:17:51;28.70;87.80
17639;DHT22;8938;53.546;9.954;2023-06-24T11:20:17;28.60;88.30
17639;DHT22;8938;53.546;9.954;2023-06-24T11:22:48;28.40;88.40
17639;DHT22;8938;53.546;9.954;2023-06-24T11:25:22;28.20;89.70
17639;DHT22;8938;53.546;9.954;2023-06-24T11:27:50;28.20;90.20
17639;DHT22;8938;53.546;9.954;2023-06-24T11:30:17;28.30;90.30
17639;DHT22;8938;53.546;9.954;2023-06-24T11:32:44;28.40;90.20
17639;DHT22;8938;53.546;9.954;2023-06-24T11:35:11;28.40;90.30
17639;DHT22;8938;53.546;9.954;2023-06-24T11:37:41;28.40;90.30
17639;DHT22;8938;53.546;9.954;2023-06-24T11:40:08;28.50;90.40
17639;DHT22;8938;53.546;9.954;2023-06-24T11:42:39;28.60;90.30
17639;DHT22;8938;53.546;9.954;2023-06-24T11:45:19;28.70;90.20
17639;DHT22;8938;53.546;9.954;2023-06-24T11:47:44;28.80;90.30
17639;DHT22;8938;53.546;9.954;2023-06-24T11:50:10;29.00;90.60
17639;DHT22;8938;53.546;9.954;2023-06-24T11:52:42;29.10;90.10
17639;DHT22;8938;53.546;9.954;2023-06-24T11:57:55;29.30;90.00
17639;DHT22;8938;53.546;9.954;2023-06-24T12:00:26;29.30;90.00
17639;DHT22;8938;53.546;9.954;2023-06-24T12:02:57;29.20;90.10
17639;DHT22;8938;53.546;9.954;2023-06-24T12:05:23;29.30;90.10
17639;DHT22;8938;53.546;9.954;2023-06-24T12:07:56;29.50;90.10
17639;DHT22;8938;53.546;9.954;2023-06-24T12:10:22;29.60;90.00
17639;DHT22;8938;53.546;9.954;2023-06-24T12:12:49;29.80;89.90
17639;DHT22;8938;53.546;9.954;2023-06-24T12:15:15;29.90;89.20
17639;DHT22;8938;53.546;9.954;2023-06-24T12:17:40;30.00;89.10
17639;DHT22;8938;53.546;9.954;2023-06-24T12:20:07;29.90;88.70
17639;DHT22;8938;53.546;9.954;2023-06-24T12:22:33;29.80;89.00
17639;DHT22;8938;53.546;9.954;2023-06-24T12:24:58;29.90;89.00
17639;DHT22;8938;53.546;9.954;2023-06-24T12:27:24;29.90;88.60
17639;DHT22;8938;53.546;9.954;2023-06-24T12:29:49;29.90;88.50
17639;DHT22;8938;53.546;9.954;2023-06-24T12:32:15;29.90;88.50
17639;DHT22;8938;53.546;9.954;2023-06-24T12:34:40;30.00;88.60
17639;DHT22;8938;53.546;9.954;2023-06-24T12:37:06;30.10;89.20
17639;DHT22;8938;53.546;9.954;2023-06-24T12:39:31;30.30;88.80
17639;DHT22;8938;53.546;9.954;2023-06-24T12:41:57;30.40;88.10
17639;DHT22;8938;53.546;9.954;2023-06-24T12:44:22;30.40;87.40
17639;DHT22;8938;53.546;9.954;2023-06-24T12:46:48;30.50;88.20
17639;DHT22;8938;53.546;9.954;2023-06-24T12:49:13;30.80;88.50
17639;DHT22;8938;53.546;9.954;2023-06-24T12:51:39;30.90;87.40
17639;DHT22;8938;53.546;9.954;2023-06-24T12:54:04;31.00;85.50
17639;DHT22;8938;53.546;9.954;2023-06-24T12:56:30;31.10;85.80
17639;DHT22;8938;53.546;9.954;2023-06-24T12:58:55;31.20;86.60
17639;DHT22;8938;53.546;9.954;2023-06-24T13:01:21;31.10;86.10
17639;DHT22;8938;53.546;9.954;2023-06-24T13:03:46;30.90;86.10
17639;DHT22;8938;53.546;9.954;2023-06-24T13:06:12;30.70;86.70
17639;DHT22;8938;53.546;9.954;2023-06-24T13:08:39;30.70;86.90
17639;DHT22;8938;53.546;9.954;2023-06-24T13:11:04;30.50;87.20
17639;DHT22;8938;53.546;9.954;2023-06-24T13:13:30;30.70;87.70
17639;DHT22;8938;53.546;9.954;2023-06-24T13:15:56;30.80;87.00
17639;DHT22;8938;53.546;9.954;2023-06-24T13:18:21;31.10;86.40
17639;DHT22;8938;53.546;9.954;2023-06-24T13:20:47;31.20;86.40
17639;DHT22;8938;53.546;9.954;2023-06-24T13:23:12;31.40;86.60
17639;DHT22;8938;53.546;9.954;2023-06-24T13:25:38;31.40;86.00
17639;DHT22;8938;53.546;9.954;2023-06-24T13:28:03;31.50;85.70
17639;DHT22;8938;53.546;9.954;2023-06-24T13:30:29;31.50;85.40
17639;DHT22;8938;53.546;9.954;2023-06-24T13:32:55;31.60;85.30
17639;DHT22;8938;53.546;9.954;2023-06-24T13:35:20;31.40;85.00
17639;DHT22;8938;53.546;9.954;2023-06-24T13:37:46;31.20;85.20
17639;DHT22;8938;53.546;9.954;2023-06-24T13:40:12;31.10;84.40
17639;DHT22;8938;53.546;9.954;2023-06-24T13:42:37;30.90;84.80
17639;DHT22;8938;53.546;9.954;2023-06-24T13:45:05;30.90;85.30
17639;DHT22;8938;53.546;9.954;2023-06-24T13:47:33;30.90;85.30
17639;DHT22;8938;53.546;9.954;2023-06-24T13:49:59;30.90;85.10
17639;DHT22;8938;53.546;9.954;2023-06-24T13:52:25;31.10;84.50
17639;DHT22;8938;53.546;9.954;2023-06-24T13:54:52;31.00;84.40
17639;DHT22;8938;53.546;9.954;2023-06-24T13:57:17;30.90;84.10
17639;DHT22;8938;53.546;9.954;2023-06-24T13:59:43;30.90;84.10
17639;DHT22;8938;53.546;9.954;2023-06-24T14:02:09;30.90;84.20
17639;DHT22;8938;53.546;9.954;2023-06-24T14:04:35;30.90;83.80
17639;DHT22;8938;53.546;9.954;2023-06-24T14:07:00;30.90;84.80
17639;DHT22;8938;53.546;9.954;2023-06-24T14:09:28;30.80;84.50
17639;DHT22;8938;53.546;9.954;2023-06-24T14:11:53;30.80;84.70
17639;DHT22;8938;53.546;9.954;2023-06-24T14:14:21;30.70;84.40
17639;DHT22;8938;53.546;9.954;2023-06-24T14:16:46;30.50;84.60
17639;DHT22;8938;53.546;9.954;2023-06-24T14:19:12;30.40;84.90
17639;DHT22;8938;53.546;9.954;2023-06-24T14:21:38;30.50;85.60
17639;DHT22;8938;53.546;9.954;2023-06-24T14:24:05;30.70;85.30
17639;DHT22;8938;53.546;9.954;2023-06-24T14:26:30;30.80;84.90
17639;DHT22;8938;53.546;9.954;2023-06-24T14:28:56;30.90;85.50
17639;DHT22;8938;53.546;9.954;2023-06-24T14:31:21;31.10;85.60
17639;DHT22;8938;53.546;9.954;2023-06-24T14:33:47;31.20;84.80
17639;DHT22;8938;53.546;9.954;2023-06-24T14:36:12;31.20;84.60
17639;DHT22;8938;53.546;9.954;2023-06-24T14:38:38;31.10;84.80
17639;DHT22;8938;53.546;9.954;2023-06-24T14:41:03;30.90;84.60
17639;DHT22;8938;53.546;9.954;2023-06-24T14:43:29;30.90;84.70
17639;DHT22;8938;53.546;9.954;2023-06-24T14:45:54;30.80;84.40
17639;DHT22;8938;53.546;9.954;2023-06-24T14:48:20;30.80;84.10
17639;DHT22;8938;53.546;9.954;2023-06-24T14:50:45;30.70;84.20
17639;DHT22;8938;53.546;9.954;2023-06-24T14:53:11;30.60;84.60
17639;DHT22;8938;53.546;9.954;2023-06-24T14:55:37;30.70;85.10
17639;DHT22;8938;53.546;9.954;2023-06-24T14:58:02;30.70;85.20
17639;DHT22;8938;53.546;9.954;2023-06-24T15:00:28;30.70;85.10
17639;DHT22;8938;53.546;9.954;2023-06-24T15:02:53;30.90;85.20
17639;DHT22;8938;53.546;9.954;2023-06-24T15:05:19;31.10;84.50
17639;DHT22;8938;53.546;9.954;2023-06-24T15:07:44;31.10;84.30
17639;DHT22;8938;53.546;9.954;2023-06-24T15:10:10;31.00;84.80
17639;DHT22;8938;53.546;9.954;2023-06-24T15:12:35;30.70;84.40
17639;DHT22;8938;53.546;9.954;2023-06-24T15:15:01;30.50;84.60
17639;DHT22;8938;53.546;9.954;2023-06-24T15:17:27;30.50;84.70
17639;DHT22;8938;53.546;9.954;2023-06-24T15:19:54;30.50;84.90
17639;DHT22;8938;53.546;9.954;2023-06-24T15:22:20;30.40;84.80
17639;DHT22;8938;53.546;9.954;2023-06-24T15:24:45;30.30;85.40
17639;DHT22;8938;53.546;9.954;2023-06-24T15:27:11;30.20;85.40
17639;DHT22;8938;53.546;9.954;2023-06-24T15:29:37;30.30;85.70
17639;DHT22;8938;53.546;9.954;2023-06-24T15:32:02;30.40;85.30
17639;DHT22;8938;53.546;9.954;2023-06-24T15:34:28;30.30;85.00
17639;DHT22;8938;53.546;9.954;2023-06-24T15:36:53;30.20;85.10
17639;DHT22;8938;53.546;9.954;2023-06-24T15:39:19;30.10;85.50
17639;DHT22;8938;53.546;9.954;2023-06-24T15:41:46;30.10;85.90
17639;DHT22;8938;53.546;9.954;2023-06-24T15:44:13;30.00;85.80
17639;DHT22;8938;53.546;9.954;2023-06-24T15:46:38;30.00;85.60
17639;DHT22;8938;53.546;9.954;2023-06-24T15:49:04;30.00;85.40
17639;DHT22;8938;53.546;9.954;2023-06-24T15:51:29;30.10;85.50
17639;DHT22;8938;53.546;9.954;2023-06-24T15:53:55;30.10;85.70
17639;DHT22;8938;53.546;9.954;2023-06-24T15:56:20;30.10;85.60